Terminal Aerodrome Forecast
Issued by NWS

Home | Current Version | Previous Version | Text Only | Print | Product List | Glossary On
Versions: 1 2 3 4 5 6 7 8 9 10 11 12 13
000
FTUS42 KMLB 291700
TAFTIX
TAF
KTIX 291739Z 2918/3018 24009KT P6SM VCSH SCT040 BKN120
     FM292000 26010KT P6SM SCT035 SCT120 BKN250
     FM300000 24007KT P6SM FEW040 SCT250
     FM301400 29006KT P6SM SCT025=

USA.gov is the U.S. government's official web portal to all federal, state and local government web resources and services.